Medicine Hat, Canada
Current Conditions -  °F | °C
As of 12:00 AM on Saturday 25 Oct 2014 (Local Time) from CYXH Reporting Station
Scattered Clouds Scattered Clouds  
Wind Chill: 36°   Ceiling: Unl
Heat Index: 41°   Visibility: 9mi
Dew Point: 30°   Wind: 7mph
Humidity: 65%   Direction: 210°SSW
Pressure: 30.05"   Gusts: NA
Location:  50.04°N, 110.68°W
Report Text: CYXH 250600Z AUTO 21006KT 9SM SCT170 05/M01 A3005 RMK SLP188
Loading
Personal Weather Stations






























Interactive Weather Map
Tropical Storm Tracking
New forecast layout! Learn more

10-Day Weather Forecast

Advertisements
Track Severe Weather on mobile